createdAt,value
2023-05-21T00:00:29.182Z,1014.84
2023-05-21T00:01:29.189Z,1014.83
2023-05-21T00:02:29.287Z,1014.81
2023-05-21T00:03:29.303Z,1014.77
2023-05-21T00:04:29.262Z,1014.77
2023-05-21T00:05:29.275Z,1014.77
2023-05-21T00:06:29.527Z,1014.76
2023-05-21T00:07:29.297Z,1014.77
2023-05-21T00:08:29.316Z,1014.76
2023-05-21T00:09:29.335Z,1014.72
2023-05-21T00:10:29.356Z,1014.75
2023-05-21T00:11:29.367Z,1014.74
2023-05-21T00:12:29.389Z,1014.77
2023-05-21T00:13:29.402Z,1014.73
2023-05-21T00:14:29.423Z,1014.73
2023-05-21T00:15:29.442Z,1014.75
2023-05-21T00:16:29.548Z,1014.75
2023-05-21T00:17:29.502Z,1014.72
2023-05-21T00:18:29.507Z,1014.71
2023-05-21T00:19:29.625Z,1014.72
2023-05-21T00:20:29.524Z,1014.70
2023-05-21T00:21:29.547Z,1014.67
2023-05-21T00:22:29.631Z,1014.66
2023-05-21T00:23:29.585Z,1014.65
2023-05-21T00:24:29.601Z,1014.62
2023-05-21T00:25:29.615Z,1014.63
2023-05-21T00:26:29.633Z,1014.65
2023-05-21T00:27:29.653Z,1014.64
2023-05-21T00:28:29.670Z,1014.62
2023-05-21T00:29:29.686Z,1014.62
2023-05-21T00:30:29.701Z,1014.61
2023-05-21T00:31:29.804Z,1014.61
2023-05-21T00:32:29.756Z,1014.60
2023-05-21T00:33:29.760Z,1014.58
2023-05-21T00:34:29.771Z,1014.61
2023-05-21T00:35:29.788Z,1014.61
2023-05-21T00:36:29.826Z,1014.61
2023-05-21T00:37:29.911Z,1014.60
2023-05-21T00:38:29.840Z,1014.57
2023-05-21T00:39:29.864Z,1014.56
2023-05-21T00:40:29.880Z,1014.60
2023-05-21T00:41:29.896Z,1014.60
2023-05-21T00:42:29.912Z,1014.60
2023-05-21T00:43:29.931Z,1014.57
2023-05-21T00:44:29.948Z,1014.59
2023-05-21T00:45:30.101Z,1014.59
2023-05-21T00:46:30.149Z,1014.59
2023-05-21T00:47:30.048Z,1014.58
2023-05-21T00:48:30.017Z,1014.60
2023-05-21T00:49:30.035Z,1014.54
2023-05-21T00:50:30.053Z,1014.55
2023-05-21T00:51:30.070Z,1014.56
2023-05-21T00:52:30.088Z,1014.54
2023-05-21T00:53:30.109Z,1014.54
2023-05-21T00:54:30.125Z,1014.52
2023-05-21T00:55:30.142Z,1014.51
2023-05-21T00:56:30.158Z,1014.47
2023-05-21T00:57:30.178Z,1014.50
2023-05-21T00:58:30.192Z,1014.47
2023-05-21T00:59:30.212Z,1014.47
2023-05-21T01:00:30.234Z,1014.43
2023-05-21T01:01:30.316Z,1014.46
2023-05-21T01:02:30.294Z,1014.45
2023-05-21T01:03:30.320Z,1014.44
2023-05-21T01:04:30.298Z,1014.43
2023-05-21T01:05:30.313Z,1014.46
2023-05-21T01:06:30.334Z,1014.42
2023-05-21T01:07:30.349Z,1014.38
2023-05-21T01:08:30.366Z,1014.37
2023-05-21T01:09:30.388Z,1014.35
2023-05-21T01:10:30.410Z,1014.32
2023-05-21T01:11:30.420Z,1014.33
2023-05-21T01:12:30.439Z,1014.34
2023-05-21T01:13:30.456Z,1014.32
2023-05-21T01:14:30.474Z,1014.32
2023-05-21T01:15:30.494Z,1014.32
2023-05-21T01:16:30.549Z,1014.29
2023-05-21T01:17:30.548Z,1014.28
2023-05-21T01:18:30.566Z,1014.32
2023-05-21T01:19:30.641Z,1014.34
2023-05-21T01:20:30.590Z,1014.30
2023-05-21T01:21:30.594Z,1014.30
2023-05-21T01:22:30.616Z,1014.29
2023-05-21T01:23:30.635Z,1014.27
2023-05-21T01:24:30.661Z,1014.30
2023-05-21T01:25:30.671Z,1014.32
2023-05-21T01:26:30.688Z,1014.28
2023-05-21T01:27:30.721Z,1014.31
2023-05-21T01:28:30.722Z,1014.26
2023-05-21T01:29:30.749Z,1014.30
2023-05-21T01:30:30.759Z,1014.30
2023-05-21T01:31:30.776Z,1014.33
2023-05-21T01:32:30.812Z,1014.28
2023-05-21T01:33:30.887Z,1014.29
2023-05-21T01:34:30.825Z,1014.30
2023-05-21T01:35:30.851Z,1014.25
2023-05-21T01:36:30.871Z,1014.27
2023-05-21T01:37:30.884Z,1014.31
2023-05-21T01:38:30.903Z,1014.30
2023-05-21T01:39:30.920Z,1014.31
2023-05-21T01:40:30.937Z,1014.32
2023-05-21T01:41:30.956Z,1014.27
2023-05-21T01:42:30.974Z,1014.24
2023-05-21T01:43:30.998Z,1014.26
2023-05-21T01:44:31.017Z,1014.23
2023-05-21T01:45:31.028Z,1014.26
2023-05-21T01:46:31.092Z,1014.24
2023-05-21T01:47:31.085Z,1014.24
2023-05-21T01:48:31.094Z,1014.23
2023-05-21T01:49:31.102Z,1014.26
2023-05-21T01:50:31.119Z,1014.26
2023-05-21T01:51:31.157Z,1014.25
2023-05-21T01:52:31.164Z,1014.23
2023-05-21T01:53:31.184Z,1014.20
2023-05-21T01:54:31.192Z,1014.24
2023-05-21T01:55:31.216Z,1014.21
2023-05-21T01:56:31.227Z,1014.19
2023-05-21T01:57:31.242Z,1014.18
2023-05-21T01:58:31.271Z,1014.16
2023-05-21T01:59:31.279Z,1014.17
2023-05-21T02:00:31.296Z,1014.14
2023-05-21T02:01:31.329Z,1014.16
2023-05-21T02:02:31.417Z,1014.17
2023-05-21T02:03:31.529Z,1014.13
2023-05-21T02:04:31.370Z,1014.18
2023-05-21T02:05:31.385Z,1014.14
2023-05-21T02:06:31.407Z,1014.14
2023-05-21T02:07:31.420Z,1014.11
2023-05-21T02:08:31.436Z,1014.14
2023-05-21T02:09:31.455Z,1014.14
2023-05-21T02:10:31.475Z,1014.13
2023-05-21T02:11:31.489Z,1014.11
2023-05-21T02:12:31.514Z,1014.10
2023-05-21T02:13:31.533Z,1014.12
2023-05-21T02:14:31.545Z,1014.10
2023-05-21T02:15:31.566Z,1014.11
2023-05-21T02:16:31.613Z,1014.08
2023-05-21T02:17:31.625Z,1014.07
2023-05-21T02:18:31.614Z,1014.08
2023-05-21T02:19:31.663Z,1014.05
2023-05-21T02:20:31.664Z,1014.03
2023-05-21T02:21:31.667Z,1014.03
2023-05-21T02:22:31.688Z,1014.03
2023-05-21T02:23:31.714Z,1014.03
2023-05-21T02:24:31.719Z,1013.99
2023-05-21T02:25:31.746Z,1013.95
2023-05-21T02:26:31.768Z,1013.98
2023-05-21T02:27:31.776Z,1013.94
2023-05-21T02:28:31.798Z,1013.96
2023-05-21T02:29:31.820Z,1013.95
2023-05-21T02:30:31.829Z,1013.97
2023-05-21T02:31:31.861Z,1014.00
2023-05-21T02:32:31.935Z,1013.97
2023-05-21T02:33:31.926Z,1014.03
2023-05-21T02:34:31.901Z,1014.00
2023-05-21T02:35:31.915Z,1014.03
2023-05-21T02:36:31.932Z,1014.02
2023-05-21T02:37:31.952Z,1014.00
2023-05-21T02:38:31.969Z,1013.97
2023-05-21T02:39:31.986Z,1013.99
2023-05-21T02:40:32.011Z,1013.97
2023-05-21T02:41:32.021Z,1013.94
2023-05-21T02:42:32.043Z,1013.93
2023-05-21T02:43:32.059Z,1013.99
2023-05-21T02:44:32.079Z,1013.94
2023-05-21T02:45:32.109Z,1013.95
2023-05-21T02:46:32.157Z,1013.93
2023-05-21T02:47:32.150Z,1013.93
2023-05-21T02:48:32.142Z,1013.93
2023-05-21T02:49:32.161Z,1013.95
2023-05-21T02:50:32.175Z,1013.91
2023-05-21T02:51:32.194Z,1013.97
2023-05-21T02:52:32.212Z,1013.92
2023-05-21T02:53:32.241Z,1013.92
2023-05-21T02:54:32.269Z,1013.89
2023-05-21T02:55:32.264Z,1013.86
2023-05-21T02:56:32.282Z,1013.87
2023-05-21T02:57:32.299Z,1013.89
2023-05-21T02:58:32.315Z,1013.88
2023-05-21T02:59:32.332Z,1013.86
2023-05-21T03:00:32.362Z,1013.86
2023-05-21T03:01:32.392Z,1013.85
2023-05-21T03:02:32.471Z,1013.81
2023-05-21T03:03:32.618Z,1013.81
2023-05-21T03:04:32.423Z,1013.84
2023-05-21T03:05:32.449Z,1013.86
2023-05-21T03:06:32.459Z,1013.82
2023-05-21T03:07:32.532Z,1013.83
2023-05-21T03:08:32.509Z,1013.82
2023-05-21T03:09:32.511Z,1013.81
2023-05-21T03:10:32.524Z,1013.78
2023-05-21T03:11:32.545Z,1013.79
2023-05-21T03:12:32.559Z,1013.78
2023-05-21T03:13:32.619Z,1013.75
2023-05-21T03:14:32.606Z,1013.78
2023-05-21T03:15:32.612Z,1013.80
2023-05-21T03:16:32.662Z,1013.83
2023-05-21T03:17:32.699Z,1013.79
2023-05-21T03:18:32.661Z,1013.81
2023-05-21T03:19:32.737Z,1013.76
2023-05-21T03:20:32.709Z,1013.77
2023-05-21T03:21:32.714Z,1013.80
2023-05-21T03:22:32.737Z,1013.75
2023-05-21T03:23:32.753Z,1013.81
2023-05-21T03:24:32.768Z,1013.81
2023-05-21T03:25:32.784Z,1013.82
2023-05-21T03:26:32.805Z,1013.88
2023-05-21T03:27:32.821Z,1013.84
2023-05-21T03:28:32.838Z,1013.87
2023-05-21T03:29:32.857Z,1013.84
2023-05-21T03:30:32.874Z,1013.81
2023-05-21T03:31:32.943Z,1013.82
2023-05-21T03:32:32.929Z,1013.80
2023-05-21T03:33:32.928Z,1013.82
2023-05-21T03:34:32.945Z,1013.88
2023-05-21T03:35:32.962Z,1013.85
2023-05-21T03:36:32.978Z,1013.85
2023-05-21T03:37:33.003Z,1013.84
2023-05-21T03:38:34.019Z,1013.84
2023-05-21T03:39:33.043Z,1013.83
2023-05-21T03:40:33.049Z,1013.87
2023-05-21T03:41:33.066Z,1013.86
2023-05-21T03:42:33.087Z,1013.87
2023-05-21T03:43:33.108Z,1013.89
2023-05-21T03:44:33.122Z,1013.89
2023-05-21T03:45:33.141Z,1013.90
2023-05-21T03:46:33.227Z,1013.91
2023-05-21T03:47:33.193Z,1013.92
2023-05-21T03:48:33.195Z,1013.89
2023-05-21T03:49:33.205Z,1013.87
2023-05-21T03:50:33.229Z,1013.90
2023-05-21T03:51:33.242Z,1013.94
2023-05-21T03:52:33.262Z,1013.98
2023-05-21T03:53:33.283Z,1013.92
2023-05-21T03:54:33.304Z,1013.95
2023-05-21T03:55:33.384Z,1013.98
2023-05-21T03:56:33.335Z,1013.94
2023-05-21T03:57:33.358Z,1013.96
2023-05-21T03:58:33.370Z,1013.93
2023-05-21T03:59:33.388Z,1013.91
2023-05-21T04:00:33.415Z,1013.90
2023-05-21T04:01:33.436Z,1013.96
2023-05-21T04:02:33.547Z,1013.95
2023-05-21T04:03:33.693Z,1013.92
2023-05-21T04:04:33.554Z,1013.95
2023-05-21T04:05:33.638Z,1013.93
2023-05-21T04:06:33.512Z,1013.92
2023-05-21T04:07:33.549Z,1013.95
2023-05-21T04:08:33.557Z,1013.94
2023-05-21T04:09:35.326Z,1013.98
2023-05-21T04:10:33.590Z,1013.98
2023-05-21T04:11:33.598Z,1014.00
2023-05-21T04:12:33.617Z,1013.97
2023-05-21T04:13:33.638Z,1013.96
2023-05-21T04:14:33.661Z,1013.96
2023-05-21T04:15:33.790Z,1013.95
2023-05-21T04:16:33.752Z,1013.94
2023-05-21T04:17:33.753Z,1013.95
2023-05-21T04:18:33.729Z,1013.98
2023-05-21T04:19:33.873Z,1013.98
2023-05-21T04:20:33.779Z,1014.02
2023-05-21T04:21:33.788Z,1014.02
2023-05-21T04:22:33.821Z,1014.02
2023-05-21T04:23:33.818Z,1014.07
2023-05-21T04:24:33.851Z,1014.07
2023-05-21T04:25:33.969Z,1014.06
2023-05-21T04:26:33.873Z,1014.00
2023-05-21T04:27:33.893Z,1014.08
2023-05-21T04:28:33.906Z,1014.05
2023-05-21T04:29:33.932Z,1014.01
2023-05-21T04:30:33.945Z,1013.98
2023-05-21T04:31:33.987Z,1014.06
2023-05-21T04:32:34.004Z,1014.04
2023-05-21T04:33:34.010Z,1014.09
2023-05-21T04:34:34.034Z,1014.09
2023-05-21T04:35:34.235Z,1014.11
2023-05-21T04:36:34.056Z,1014.10
2023-05-21T04:37:34.077Z,1014.09
2023-05-21T04:38:34.093Z,1014.15
2023-05-21T04:39:34.110Z,1014.16
2023-05-21T04:40:34.129Z,1014.15
2023-05-21T04:41:34.149Z,1014.16
2023-05-21T04:42:34.168Z,1014.12
2023-05-21T04:43:34.189Z,1014.12
2023-05-21T04:44:34.209Z,1014.15
2023-05-21T04:45:34.333Z,1014.14
2023-05-21T04:46:34.322Z,1014.15
2023-05-21T04:47:34.315Z,1014.16
2023-05-21T04:48:34.288Z,1014.14
2023-05-21T04:49:34.299Z,1014.13
2023-05-21T04:50:34.325Z,1014.14
2023-05-21T04:51:34.337Z,1014.18
2023-05-21T04:52:34.354Z,1014.16
2023-05-21T04:53:34.393Z,1014.15
2023-05-21T04:54:34.396Z,1014.17
2023-05-21T04:55:34.586Z,1014.23
2023-05-21T04:56:34.458Z,1014.21
2023-05-21T04:57:34.452Z,1014.23
2023-05-21T04:58:34.485Z,1014.20
2023-05-21T04:59:34.491Z,1014.17
2023-05-21T05:00:34.586Z,1014.18
2023-05-21T05:01:34.529Z,1014.20
2023-05-21T05:02:34.624Z,1014.19
2023-05-21T05:03:34.607Z,1014.16
2023-05-21T05:04:34.596Z,1014.18
2023-05-21T05:05:34.961Z,1014.16
2023-05-21T05:06:34.627Z,1014.16
2023-05-21T05:07:34.650Z,1014.19
2023-05-21T05:08:34.670Z,1014.21
2023-05-21T05:09:34.689Z,1014.19
2023-05-21T05:10:34.707Z,1014.18
2023-05-21T05:11:34.823Z,1014.24
2023-05-21T05:12:34.751Z,1014.22
2023-05-21T05:13:34.777Z,1014.23
2023-05-21T05:14:34.782Z,1014.16
2023-05-21T05:15:34.939Z,1014.23
2023-05-21T05:16:34.847Z,1014.22
2023-05-21T05:17:34.890Z,1014.22
2023-05-21T05:18:34.862Z,1014.23
2023-05-21T05:19:34.943Z,1014.21
2023-05-21T05:20:34.902Z,1014.26
2023-05-21T05:21:34.924Z,1014.20
2023-05-21T05:22:34.944Z,1014.20
2023-05-21T05:23:34.962Z,1014.24
2023-05-21T05:24:34.996Z,1014.22
2023-05-21T05:25:35.070Z,1014.30
2023-05-21T05:26:35.031Z,1014.25
2023-05-21T05:27:37.711Z,1014.24
2023-05-21T05:28:35.065Z,1014.22
2023-05-21T05:29:35.087Z,1014.22
2023-05-21T05:30:35.140Z,1014.27
2023-05-21T05:31:35.212Z,1014.20
2023-05-21T05:32:35.209Z,1014.25
2023-05-21T05:33:35.180Z,1014.23
2023-05-21T05:34:35.191Z,1014.16
2023-05-21T05:35:35.439Z,1014.13
2023-05-21T05:36:35.228Z,1014.15
2023-05-21T05:37:35.249Z,1014.17
2023-05-21T05:38:35.268Z,1014.16
2023-05-21T05:39:35.300Z,1014.18
2023-05-21T05:40:35.315Z,1014.20
2023-05-21T05:41:35.335Z,1014.15
2023-05-21T05:42:35.359Z,1014.16
2023-05-21T05:43:35.377Z,1014.21
2023-05-21T05:44:35.398Z,1014.19
2023-05-21T05:45:35.661Z,1014.22
2023-05-21T05:46:35.522Z,1014.19
2023-05-21T05:47:35.485Z,1014.18
2023-05-21T05:48:35.496Z,1014.25
2023-05-21T05:49:35.504Z,1014.22
2023-05-21T05:50:35.525Z,1014.23
2023-05-21T05:51:35.549Z,1014.19
2023-05-21T05:52:35.570Z,1014.21
2023-05-21T05:53:35.592Z,1014.20
2023-05-21T05:54:35.610Z,1014.20
2023-05-21T05:55:35.783Z,1014.15
2023-05-21T05:56:35.655Z,1014.18
2023-05-21T05:57:35.674Z,1014.22
2023-05-21T05:58:35.697Z,1014.24
2023-05-21T05:59:35.737Z,1014.28
2023-05-21T06:00:35.739Z,1014.26
2023-05-21T06:01:35.795Z,1014.25
2023-05-21T06:02:35.886Z,1014.20
2023-05-21T06:03:36.027Z,1014.17
2023-05-21T06:04:35.827Z,1014.18
2023-05-21T06:05:36.153Z,1014.19
2023-05-21T06:06:35.867Z,1014.18
2023-05-21T06:07:35.892Z,1014.17
2023-05-21T06:08:37.999Z,1014.22
2023-05-21T06:09:35.936Z,1014.15
2023-05-21T06:10:35.977Z,1014.15
2023-05-21T06:11:35.980Z,1014.14
2023-05-21T06:12:35.999Z,1014.11
2023-05-21T06:13:36.028Z,1014.14
2023-05-21T06:14:36.044Z,1014.16
2023-05-21T06:15:36.309Z,1014.15
2023-05-21T06:16:36.138Z,1014.13
2023-05-21T06:17:36.164Z,1014.07
2023-05-21T06:18:36.135Z,1014.07
2023-05-21T06:19:36.184Z,1014.07
2023-05-21T06:20:36.179Z,1014.07
2023-05-21T06:21:36.198Z,1014.06
2023-05-21T06:22:36.221Z,1014.06
2023-05-21T06:23:36.251Z,1014.01
2023-05-21T06:24:36.265Z,1014.08
2023-05-21T06:25:36.426Z,1014.07
2023-05-21T06:26:36.344Z,1014.04
2023-05-21T06:27:36.332Z,1014.07
2023-05-21T06:28:36.369Z,1014.10
2023-05-21T06:29:36.384Z,1014.03
2023-05-21T06:30:36.397Z,1014.06
2023-05-21T06:31:36.429Z,1014.05
2023-05-21T06:32:36.505Z,1014.05
2023-05-21T06:33:36.550Z,1014.05
2023-05-21T06:34:36.497Z,1014.10
2023-05-21T06:35:36.644Z,1014.12
2023-05-21T06:36:36.536Z,1014.13
2023-05-21T06:37:36.574Z,1014.14
2023-05-21T06:38:36.579Z,1014.12
2023-05-21T06:39:36.598Z,1014.11
2023-05-21T06:40:36.629Z,1014.10
2023-05-21T06:41:36.661Z,1014.09
2023-05-21T06:42:36.679Z,1014.08
2023-05-21T06:43:36.687Z,1014.06
2023-05-21T06:44:36.713Z,1014.08
2023-05-21T06:45:36.966Z,1014.10
2023-05-21T06:46:36.777Z,1014.11
2023-05-21T06:47:36.824Z,1014.12
2023-05-21T06:48:36.805Z,1014.13
2023-05-21T06:49:36.827Z,1014.16
2023-05-21T06:50:36.850Z,1014.15
2023-05-21T06:51:36.868Z,1014.12
2023-05-21T06:52:36.897Z,1014.16
2023-05-21T06:53:36.923Z,1014.11
2023-05-21T06:54:36.944Z,1014.10
2023-05-21T06:55:37.116Z,1014.06
2023-05-21T06:56:36.984Z,1014.03
2023-05-21T06:57:37.009Z,1014.00
2023-05-21T06:58:37.032Z,1014.03
2023-05-21T06:59:37.060Z,1014.05
2023-05-21T07:00:37.080Z,1014.07
2023-05-21T07:01:37.186Z,1014.01
2023-05-21T07:02:37.188Z,1014.03
2023-05-21T07:03:37.176Z,1014.04
2023-05-21T07:04:37.181Z,1014.06
2023-05-21T07:05:37.425Z,1014.02
2023-05-21T07:06:37.238Z,1014.06
2023-05-21T07:07:37.259Z,1014.06
2023-05-21T07:08:37.276Z,1014.03
2023-05-21T07:09:37.307Z,1014.05
2023-05-21T07:10:37.327Z,1014.12
2023-05-21T07:11:37.349Z,1014.08
2023-05-21T07:12:37.377Z,1014.10
2023-05-21T07:13:37.402Z,1014.12
2023-05-21T07:14:37.436Z,1014.11
2023-05-21T07:15:37.675Z,1014.12
2023-05-21T07:16:37.523Z,1014.09
2023-05-21T07:17:37.520Z,1014.06
2023-05-21T07:18:37.532Z,1014.11
2023-05-21T07:19:37.557Z,1014.07
2023-05-21T07:20:37.588Z,1014.08
2023-05-21T07:21:37.631Z,1014.08
2023-05-21T07:22:37.639Z,1014.10
2023-05-21T07:23:37.686Z,1014.06
2023-05-21T07:24:37.693Z,1014.00
2023-05-21T07:25:37.920Z,1014.02
2023-05-21T07:26:37.749Z,1014.00
2023-05-21T07:27:37.777Z,1013.97
2023-05-21T07:28:37.808Z,1014.03
2023-05-21T07:29:37.828Z,1014.03
2023-05-21T07:30:37.861Z,1013.94
2023-05-21T07:31:38.035Z,1013.97
2023-05-21T07:32:37.952Z,1014.03
2023-05-21T07:33:37.944Z,1013.95
2023-05-21T07:34:37.973Z,1013.97
2023-05-21T07:35:38.185Z,1013.99
2023-05-21T07:36:38.041Z,1013.97
2023-05-21T07:37:38.064Z,1013.98
2023-05-21T07:38:38.079Z,1013.98
2023-05-21T07:39:38.113Z,1013.96
2023-05-21T07:40:38.149Z,1013.93
2023-05-21T07:41:38.174Z,1013.95
2023-05-21T07:42:38.193Z,1013.92
2023-05-21T07:43:38.226Z,1013.93
2023-05-21T07:44:38.275Z,1013.98
2023-05-21T07:45:38.521Z,1013.95
2023-05-21T07:46:38.361Z,1013.96
2023-05-21T07:47:38.370Z,1013.95
2023-05-21T07:48:38.381Z,1013.98
2023-05-21T07:49:38.400Z,1013.96
2023-05-21T07:50:38.431Z,1014.00
2023-05-21T07:51:38.458Z,1013.93
2023-05-21T07:52:38.514Z,1013.94
2023-05-21T07:53:38.512Z,1014.01
2023-05-21T07:54:38.542Z,1013.96
2023-05-21T07:55:38.704Z,1013.97
2023-05-21T07:56:38.624Z,1013.97
2023-05-21T07:57:38.632Z,1013.93
2023-05-21T07:58:38.668Z,1013.96
2023-05-21T07:59:38.723Z,1013.92
2023-05-21T08:00:38.719Z,1013.93
2023-05-21T08:01:38.759Z,1013.89
2023-05-21T08:02:38.918Z,1013.88
2023-05-21T08:03:39.013Z,1013.86
2023-05-21T08:04:40.886Z,1013.89
2023-05-21T08:05:39.098Z,1013.90
2023-05-21T08:06:38.901Z,1013.87
2023-05-21T08:07:38.927Z,1013.87
2023-05-21T08:08:38.956Z,1013.84
2023-05-21T08:09:38.993Z,1013.84
2023-05-21T08:10:39.017Z,1013.86
2023-05-21T08:11:39.046Z,1013.78
2023-05-21T08:12:39.080Z,1013.80
2023-05-21T08:13:39.107Z,1013.80
2023-05-21T08:14:39.137Z,1013.84
2023-05-21T08:15:39.197Z,1013.84
2023-05-21T08:16:39.220Z,1013.86
2023-05-21T08:17:39.257Z,1013.86
2023-05-21T08:18:39.265Z,1013.80
2023-05-21T08:19:39.451Z,1013.83
2023-05-21T08:20:39.321Z,1013.91
2023-05-21T08:21:39.355Z,1013.88
2023-05-21T08:22:39.382Z,1013.82
2023-05-21T08:23:39.413Z,1013.83
2023-05-21T08:24:39.439Z,1013.84
2023-05-21T08:25:39.610Z,1013.85
2023-05-21T08:26:39.520Z,1013.81
2023-05-21T08:27:39.539Z,1013.81
2023-05-21T08:28:39.565Z,1013.84
2023-05-21T08:29:39.599Z,1013.80
2023-05-21T08:30:39.621Z,1013.75
2023-05-21T08:31:39.666Z,1013.74
2023-05-21T08:32:39.703Z,1013.75
2023-05-21T08:33:39.713Z,1013.76
2023-05-21T08:34:39.745Z,1013.78
2023-05-21T08:35:39.850Z,1013.80
2023-05-21T08:36:39.809Z,1013.82
2023-05-21T08:37:39.836Z,1013.75
2023-05-21T08:38:39.878Z,1013.81
2023-05-21T08:39:39.899Z,1013.83
2023-05-21T08:40:39.928Z,1013.82
2023-05-21T08:41:39.968Z,1013.90
2023-05-21T08:42:39.990Z,1013.81
2023-05-21T08:43:40.027Z,1013.80
2023-05-21T08:44:40.048Z,1013.85
2023-05-21T08:45:40.254Z,1013.84
2023-05-21T08:46:40.106Z,1013.79
2023-05-21T08:47:40.162Z,1013.85
2023-05-21T08:48:40.163Z,1013.79
2023-05-21T08:49:40.233Z,1013.85
2023-05-21T08:50:40.235Z,1013.87
2023-05-21T08:51:40.253Z,1013.86
2023-05-21T08:52:40.286Z,1013.86
2023-05-21T08:53:40.312Z,1013.84
2023-05-21T08:54:40.356Z,1013.79
2023-05-21T08:55:40.364Z,1013.78
2023-05-21T08:56:40.399Z,1013.82
2023-05-21T08:57:40.423Z,1013.81
2023-05-21T08:58:40.453Z,1013.78
2023-05-21T08:59:40.484Z,1013.82
2023-05-21T09:00:40.509Z,1013.84
2023-05-21T09:01:40.541Z,1013.80
2023-05-21T09:02:40.702Z,1013.83
2023-05-21T09:03:40.628Z,1013.88
2023-05-21T09:04:40.672Z,1013.90
2023-05-21T09:05:40.651Z,1013.92
2023-05-21T09:06:40.690Z,1013.85
2023-05-21T09:07:40.713Z,1013.87
2023-05-21T09:08:40.743Z,1013.85
2023-05-21T09:09:40.768Z,1013.90
2023-05-21T09:10:40.802Z,1013.91
2023-05-21T09:11:40.830Z,1013.93
2023-05-21T09:12:40.861Z,1013.87
2023-05-21T09:13:40.887Z,1013.83
2023-05-21T09:14:40.917Z,1013.78
2023-05-21T09:15:40.950Z,1013.79
2023-05-21T09:16:41.028Z,1013.78
2023-05-21T09:17:41.006Z,1013.77
2023-05-21T09:18:41.034Z,1013.80
2023-05-21T09:19:41.111Z,1013.74
2023-05-21T09:20:41.099Z,1013.79
2023-05-21T09:21:41.126Z,1013.79
2023-05-21T09:22:41.161Z,1013.74
2023-05-21T09:23:41.186Z,1013.76
2023-05-21T09:24:41.214Z,1013.75
2023-05-21T09:25:41.247Z,1013.68
2023-05-21T09:26:41.274Z,1013.70
2023-05-21T09:27:41.303Z,1013.67
2023-05-21T09:28:41.332Z,1013.69
2023-05-21T09:29:41.362Z,1013.66
2023-05-21T09:30:41.570Z,1013.67
2023-05-21T09:31:41.458Z,1013.66
2023-05-21T09:32:41.546Z,1013.66
2023-05-21T09:33:41.487Z,1013.67
2023-05-21T09:34:41.512Z,1013.62
2023-05-21T09:35:41.541Z,1013.65
2023-05-21T09:36:41.581Z,1013.59
2023-05-21T09:37:41.601Z,1013.62
2023-05-21T09:38:41.645Z,1013.60
2023-05-21T09:39:41.666Z,1013.57
2023-05-21T09:40:41.692Z,1013.49
2023-05-21T09:41:41.720Z,1013.54
2023-05-21T09:42:41.751Z,1013.47
2023-05-21T09:43:41.785Z,1013.46
2023-05-21T09:44:41.808Z,1013.47
2023-05-21T09:45:41.840Z,1013.48
2023-05-21T09:46:42.274Z,1013.39
2023-05-21T09:47:41.916Z,1013.45
2023-05-21T09:48:41.990Z,1013.45
2023-05-21T09:49:41.961Z,1013.42
2023-05-21T09:50:41.994Z,1013.44
2023-05-21T09:51:42.030Z,1013.33
2023-05-21T09:52:42.342Z,1013.40
2023-05-21T09:53:42.090Z,1013.46
2023-05-21T09:54:42.125Z,1013.54
2023-05-21T09:55:42.151Z,1013.48
2023-05-21T09:56:42.189Z,1013.58
2023-05-21T09:57:42.204Z,1013.50
2023-05-21T09:58:42.248Z,1013.57
2023-05-21T09:59:42.279Z,1013.51
2023-05-21T10:00:42.303Z,1013.56
2023-05-21T10:01:42.357Z,1013.52
2023-05-21T10:02:42.404Z,1013.46
2023-05-21T10:03:42.394Z,1013.42
2023-05-21T10:04:42.488Z,1013.43
2023-05-21T10:05:42.459Z,1013.43
2023-05-21T10:06:42.504Z,1013.42
2023-05-21T10:07:42.521Z,1013.38
2023-05-21T10:08:42.557Z,1013.37
2023-05-21T10:09:42.589Z,1013.38
2023-05-21T10:10:42.620Z,1013.38
2023-05-21T10:11:42.655Z,1013.39
2023-05-21T10:12:42.703Z,1013.35
2023-05-21T10:13:42.726Z,1013.32
2023-05-21T10:14:42.758Z,1013.19
2023-05-21T10:15:42.784Z,1013.33
2023-05-21T10:16:42.999Z,1013.34
2023-05-21T10:17:42.913Z,1013.32
2023-05-21T10:18:42.953Z,1013.31
2023-05-21T10:19:42.920Z,1013.29
2023-05-21T10:20:42.954Z,1013.22
2023-05-21T10:21:42.992Z,1013.19
2023-05-21T10:22:43.025Z,1013.15
2023-05-21T10:23:43.056Z,1013.22
2023-05-21T10:24:43.101Z,1013.19
2023-05-21T10:25:43.139Z,1013.15
2023-05-21T10:26:43.164Z,1013.12
2023-05-21T10:27:43.214Z,1013.12
2023-05-21T10:28:43.230Z,1013.13
2023-05-21T10:29:43.269Z,1013.03
2023-05-21T10:30:43.302Z,1012.97
2023-05-21T10:31:43.366Z,1013.00
2023-05-21T10:32:43.616Z,1013.06
2023-05-21T10:33:43.405Z,1013.07
2023-05-21T10:34:43.441Z,1012.97
2023-05-21T10:35:43.478Z,1013.07
2023-05-21T10:36:43.510Z,1013.01
2023-05-21T10:37:43.549Z,1012.96
2023-05-21T10:38:43.584Z,1012.99
2023-05-21T10:39:43.622Z,1013.02
2023-05-21T10:40:43.659Z,1012.94
2023-05-21T10:41:43.689Z,1013.06
2023-05-21T10:42:43.723Z,1013.06
2023-05-21T10:43:43.759Z,1013.04
2023-05-21T10:44:43.800Z,1012.92
2023-05-21T10:45:43.850Z,1013.01
2023-05-21T10:46:43.869Z,1012.94
2023-05-21T10:47:43.990Z,1013.00
2023-05-21T10:48:43.936Z,1013.00
2023-05-21T10:49:43.961Z,1012.92
2023-05-21T10:50:43.996Z,1013.02
2023-05-21T10:51:44.029Z,1013.08
2023-05-21T10:52:44.071Z,1013.08
2023-05-21T10:53:44.109Z,1013.01
2023-05-21T10:54:44.147Z,1012.98
2023-05-21T10:55:44.203Z,1013.12
2023-05-21T10:56:44.215Z,1013.06
2023-05-21T10:57:44.235Z,1013.09
2023-05-21T10:58:44.277Z,1013.05
2023-05-21T10:59:44.308Z,1013.02
2023-05-21T11:00:44.338Z,1013.01
2023-05-21T11:01:44.458Z,1013.02
2023-05-21T11:02:44.486Z,1013.02
2023-05-21T11:03:44.575Z,1013.02
2023-05-21T11:04:44.477Z,1012.94
2023-05-21T11:05:44.502Z,1013.08
2023-05-21T11:06:44.545Z,1013.02
2023-05-21T11:07:44.568Z,1013.04
2023-05-21T11:08:44.595Z,1013.00
2023-05-21T11:09:44.621Z,1013.04
2023-05-21T11:10:44.656Z,1013.03
2023-05-21T11:11:44.688Z,1013.11
2023-05-21T11:12:44.720Z,1013.10
2023-05-21T11:13:44.751Z,1013.09
2023-05-21T11:14:44.786Z,1013.01
2023-05-21T11:15:44.826Z,1013.06
2023-05-21T11:16:44.887Z,1013.00
2023-05-21T11:17:44.932Z,1012.95
2023-05-21T11:18:44.976Z,1012.98
2023-05-21T11:19:45.021Z,1013.08
2023-05-21T11:20:44.987Z,1012.98
2023-05-21T11:21:45.013Z,1013.01
2023-05-21T11:22:45.047Z,1012.93
2023-05-21T11:23:45.084Z,1012.88
2023-05-21T11:24:45.117Z,1012.87
2023-05-21T11:25:45.153Z,1012.91
2023-05-21T11:26:45.185Z,1012.92
2023-05-21T11:27:45.218Z,1012.93
2023-05-21T11:28:45.262Z,1012.88
2023-05-21T11:29:45.371Z,1012.85
2023-05-21T11:30:45.537Z,1012.88
2023-05-21T11:31:45.382Z,1012.80
2023-05-21T11:32:45.440Z,1012.90
2023-05-21T11:33:45.429Z,1012.90
2023-05-21T11:34:45.466Z,1012.80
2023-05-21T11:35:45.503Z,1012.80
2023-05-21T11:36:45.551Z,1012.89
2023-05-21T11:37:45.573Z,1012.80
2023-05-21T11:38:45.608Z,1012.82
2023-05-21T11:39:45.695Z,1012.81
2023-05-21T11:40:45.691Z,1012.78
2023-05-21T11:41:45.716Z,1012.79
2023-05-21T11:42:45.754Z,1012.82
2023-05-21T11:43:45.792Z,1012.81
2023-05-21T11:44:45.831Z,1012.69
2023-05-21T11:45:45.861Z,1012.74
2023-05-21T11:46:45.934Z,1012.71
2023-05-21T11:47:45.970Z,1012.74
2023-05-21T11:48:45.968Z,1012.74
2023-05-21T11:49:46.079Z,1012.65
2023-05-21T11:50:46.065Z,1012.90
2023-05-21T11:51:46.082Z,1012.84
2023-05-21T11:52:46.125Z,1012.81
2023-05-21T11:53:46.156Z,1012.77
2023-05-21T11:54:46.291Z,1012.80
2023-05-21T11:55:46.243Z,1012.75
2023-05-21T11:56:46.266Z,1012.72
2023-05-21T11:57:46.304Z,1012.76
2023-05-21T11:58:46.336Z,1012.74
2023-05-21T11:59:46.375Z,1012.87
2023-05-21T12:00:46.415Z,1012.80
2023-05-21T12:01:46.438Z,1012.83
2023-05-21T12:02:46.605Z,1012.81
2023-05-21T12:03:46.696Z,1012.79
2023-05-21T12:04:46.556Z,1012.69
2023-05-21T12:05:46.678Z,1012.76